createdAt,value
2023-02-05T00:00:36.993Z,86.40
2023-02-05T00:03:03.415Z,86.50
2023-02-05T00:05:29.808Z,86.60
2023-02-05T00:07:56.234Z,86.60
2023-02-05T00:10:22.609Z,86.60
2023-02-05T00:12:49.035Z,86.60
2023-02-05T00:15:15.480Z,86.60
2023-02-05T00:17:41.947Z,86.60
2023-02-05T00:20:08.436Z,86.60
2023-02-05T00:22:34.853Z,86.60
2023-02-05T00:25:01.232Z,86.60
2023-02-05T00:27:27.593Z,86.70
2023-02-05T00:29:53.976Z,86.70
2023-02-05T00:32:20.357Z,86.60
2023-02-05T00:34:46.792Z,86.60
2023-02-05T00:37:13.190Z,86.70
2023-02-05T00:39:39.604Z,86.80
2023-02-05T00:42:06.039Z,86.80
2023-02-05T00:44:32.432Z,86.80
2023-02-05T00:46:58.828Z,86.80
2023-02-05T00:49:25.235Z,86.80
2023-02-05T00:51:51.669Z,86.90
2023-02-05T00:54:18.104Z,87.00
2023-02-05T00:56:44.532Z,87.20
2023-02-05T00:59:11.105Z,87.30
2023-02-05T01:01:37.564Z,87.10
2023-02-05T01:04:03.990Z,87.00
2023-02-05T01:06:30.419Z,87.50
2023-02-05T01:08:56.805Z,86.90
2023-02-05T01:11:23.224Z,86.90
2023-02-05T01:13:49.667Z,86.90
2023-02-05T01:16:16.206Z,87.00
2023-02-05T01:18:42.767Z,87.00
2023-02-05T01:21:09.197Z,86.90
2023-02-05T01:23:35.642Z,86.90
2023-02-05T01:26:02.051Z,87.00
2023-02-05T01:28:28.669Z,87.10
2023-02-05T01:30:55.112Z,87.80
2023-02-05T01:33:21.515Z,87.20
2023-02-05T01:35:47.905Z,87.00
2023-02-05T01:38:14.328Z,87.00
2023-02-05T01:40:40.766Z,86.90
2023-02-05T01:43:07.157Z,86.90
2023-02-05T01:45:33.801Z,86.90
2023-02-05T01:48:00.333Z,87.00
2023-02-05T01:50:26.709Z,86.90
2023-02-05T01:52:53.100Z,86.90
2023-02-05T01:55:19.456Z,87.00
2023-02-05T01:57:45.843Z,87.00
2023-02-05T02:00:12.261Z,87.20
2023-02-05T02:02:38.688Z,87.20
2023-02-05T02:05:05.148Z,87.20
2023-02-05T02:07:31.550Z,87.20
2023-02-05T02:09:57.939Z,87.20
2023-02-05T02:12:24.311Z,87.20
2023-02-05T02:14:50.735Z,87.10
2023-02-05T02:17:17.189Z,87.10
2023-02-05T02:19:43.622Z,87.10
2023-02-05T02:22:10.056Z,87.20
2023-02-05T02:24:36.458Z,87.20
2023-02-05T02:27:02.835Z,87.30
2023-02-05T02:29:29.214Z,87.40
2023-02-05T02:31:55.593Z,87.60
2023-02-05T02:34:22.058Z,87.60
2023-02-05T02:36:48.462Z,87.60
2023-02-05T02:39:14.890Z,87.60
2023-02-05T02:41:41.336Z,87.60
2023-02-05T02:44:07.711Z,87.60
2023-02-05T02:46:34.399Z,87.70
2023-02-05T02:49:00.850Z,87.70
2023-02-05T02:51:27.272Z,87.70
2023-02-05T02:53:53.726Z,87.90
2023-02-05T02:56:20.123Z,87.90
2023-02-05T02:58:46.586Z,87.80
2023-02-05T03:01:13.018Z,87.80
2023-02-05T03:03:39.460Z,87.90
2023-02-05T03:06:05.871Z,87.90
2023-02-05T03:08:32.342Z,88.00
2023-02-05T03:10:58.779Z,88.00
2023-02-05T03:13:25.211Z,88.20
2023-02-05T03:15:51.652Z,88.30
2023-02-05T03:18:18.126Z,88.40
2023-02-05T03:20:44.572Z,88.40
2023-02-05T03:23:10.996Z,88.50
2023-02-05T03:25:37.431Z,88.60
2023-02-05T03:28:03.855Z,88.70
2023-02-05T03:30:30.277Z,88.80
2023-02-05T03:32:56.708Z,88.80
2023-02-05T03:35:23.159Z,88.80
2023-02-05T03:37:49.610Z,88.80
2023-02-05T03:40:16.244Z,88.90
2023-02-05T03:42:42.675Z,89.10
2023-02-05T03:45:09.072Z,89.20
2023-02-05T03:47:35.446Z,89.30
2023-02-05T03:50:01.896Z,89.30
2023-02-05T03:52:28.340Z,89.50
2023-02-05T03:54:54.746Z,89.70
2023-02-05T03:57:21.184Z,89.80
2023-02-05T03:59:47.609Z,89.90
2023-02-05T04:02:14.095Z,89.90
2023-02-05T04:04:40.501Z,89.90
2023-02-05T04:07:06.875Z,89.90
2023-02-05T04:09:33.314Z,90.00
2023-02-05T04:11:59.706Z,90.00
2023-02-05T04:14:26.145Z,90.00
2023-02-05T04:16:52.525Z,90.00
2023-02-05T04:19:18.898Z,89.90
2023-02-05T04:21:45.351Z,90.00
2023-02-05T04:24:11.730Z,90.00
2023-02-05T04:26:38.165Z,90.00
2023-02-05T04:29:04.571Z,90.00
2023-02-05T04:31:31.029Z,90.00
2023-02-05T04:33:57.535Z,90.00
2023-02-05T04:36:23.938Z,90.00
2023-02-05T04:38:50.369Z,90.00
2023-02-05T04:41:16.773Z,90.00
2023-02-05T04:43:43.158Z,90.00
2023-02-05T04:46:09.576Z,90.00
2023-02-05T04:48:36.080Z,90.00
2023-02-05T04:51:02.458Z,90.10
2023-02-05T04:53:28.891Z,90.10
2023-02-05T04:55:55.270Z,90.10
2023-02-05T04:58:21.649Z,90.10
2023-02-05T05:00:48.111Z,90.20
2023-02-05T05:03:14.540Z,90.20
2023-02-05T05:05:40.981Z,90.20
2023-02-05T05:08:07.428Z,90.20
2023-02-05T05:10:33.817Z,90.30
2023-02-05T05:13:00.242Z,90.30
2023-02-05T05:15:26.671Z,90.50
2023-02-05T05:17:53.107Z,90.60
2023-02-05T05:20:19.480Z,90.80
2023-02-05T05:22:45.899Z,90.90
2023-02-05T05:25:12.288Z,91.10
2023-02-05T05:27:38.714Z,91.20
2023-02-05T05:30:05.100Z,91.30
2023-02-05T05:32:31.474Z,91.40
2023-02-05T05:34:57.906Z,91.40
2023-02-05T05:37:24.299Z,91.50
2023-02-05T05:39:50.676Z,91.60
2023-02-05T05:42:17.165Z,91.50
2023-02-05T05:44:43.598Z,91.50
2023-02-05T05:47:10.056Z,91.80
2023-02-05T05:49:36.491Z,91.60
2023-02-05T05:52:02.891Z,91.70
2023-02-05T05:54:29.260Z,91.70
2023-02-05T05:56:55.624Z,91.70
2023-02-05T05:59:22.052Z,91.70
2023-02-05T06:01:48.416Z,91.70
2023-02-05T06:04:14.926Z,91.70
2023-02-05T06:06:41.338Z,91.70
2023-02-05T06:09:07.718Z,91.70
2023-02-05T06:11:34.098Z,91.70
2023-02-05T06:14:00.480Z,91.70
2023-02-05T06:16:26.922Z,91.70
2023-02-05T06:18:53.364Z,91.70
2023-02-05T06:21:19.813Z,91.70
2023-02-05T06:23:46.254Z,91.70
2023-02-05T06:26:12.707Z,91.80
2023-02-05T06:28:39.105Z,91.80
2023-02-05T06:31:05.616Z,91.90
2023-02-05T06:33:32.054Z,92.00
2023-02-05T06:35:58.434Z,92.00
2023-02-05T06:38:24.852Z,92.00
2023-02-05T06:40:51.254Z,92.10
2023-02-05T06:43:17.623Z,92.00
2023-02-05T06:45:44.038Z,91.80
2023-02-05T06:48:10.425Z,91.70
2023-02-05T06:50:36.809Z,91.50
2023-02-05T06:53:03.205Z,91.50
2023-02-05T06:55:29.627Z,91.40
2023-02-05T06:57:56.008Z,91.40
2023-02-05T07:00:22.430Z,91.40
2023-02-05T07:02:48.852Z,91.40
2023-02-05T07:05:15.246Z,91.50
2023-02-05T07:07:41.692Z,91.50
2023-02-05T07:10:08.144Z,91.60
2023-02-05T07:12:34.577Z,91.60
2023-02-05T07:15:00.980Z,91.60
2023-02-05T07:17:27.433Z,91.60
2023-02-05T07:19:53.825Z,91.60
2023-02-05T07:22:20.211Z,91.60
2023-02-05T07:24:46.692Z,91.60
2023-02-05T07:27:13.083Z,91.50
2023-02-05T07:29:39.512Z,91.50
2023-02-05T07:32:06.077Z,91.60
2023-02-05T07:34:32.540Z,91.60
2023-02-05T07:36:58.990Z,91.60
2023-02-05T07:39:25.412Z,91.70
2023-02-05T07:41:51.783Z,91.80
2023-02-05T07:44:18.212Z,91.80
2023-02-05T07:46:44.669Z,91.90
2023-02-05T07:49:11.150Z,92.00
2023-02-05T07:51:37.553Z,92.00
2023-02-05T07:54:04.033Z,92.10
2023-02-05T07:56:30.472Z,92.20
2023-02-05T07:58:56.915Z,92.20
2023-02-05T08:01:23.377Z,92.30
2023-02-05T08:03:49.838Z,92.30
2023-02-05T08:06:17.198Z,92.60
2023-02-05T08:08:43.585Z,92.40
2023-02-05T08:11:09.963Z,92.40
2023-02-05T08:13:36.397Z,92.30
2023-02-05T08:16:02.826Z,92.20
2023-02-05T08:18:29.252Z,92.20
2023-02-05T08:20:55.630Z,92.20
2023-02-05T08:23:22.000Z,92.10
2023-02-05T08:25:48.446Z,92.10
2023-02-05T08:28:14.961Z,92.10
2023-02-05T08:30:41.447Z,92.00
2023-02-05T08:33:07.858Z,92.00
2023-02-05T08:35:34.578Z,92.00
2023-02-05T08:38:01.208Z,91.90
2023-02-05T08:40:27.616Z,91.90
2023-02-05T08:42:54.010Z,91.90
2023-02-05T08:45:20.377Z,91.90
2023-02-05T08:47:46.791Z,91.80
2023-02-05T08:50:13.234Z,91.80
2023-02-05T08:52:39.684Z,91.70
2023-02-05T08:55:06.129Z,91.70
2023-02-05T08:57:32.510Z,91.60
2023-02-05T08:59:58.895Z,91.60
2023-02-05T09:02:28.484Z,91.60
2023-02-05T09:05:07.672Z,91.60
2023-02-05T09:07:35.183Z,91.60
2023-02-05T09:10:01.611Z,91.70
2023-02-05T09:12:28.083Z,91.80
2023-02-05T09:14:54.475Z,91.80
2023-02-05T09:17:20.876Z,91.90
2023-02-05T09:19:47.609Z,91.90
2023-02-05T09:22:14.100Z,91.90
2023-02-05T09:24:40.512Z,91.70
2023-02-05T09:27:06.919Z,91.50
2023-02-05T09:29:33.308Z,91.40
2023-02-05T09:31:59.718Z,91.40
2023-02-05T09:34:26.160Z,91.30
2023-02-05T09:36:52.574Z,91.20
2023-02-05T09:39:47.004Z,91.00
2023-02-05T09:42:05.318Z,91.00
2023-02-05T09:44:31.763Z,90.90
2023-02-05T09:46:58.164Z,90.90
2023-02-05T09:49:24.566Z,90.80
2023-02-05T09:51:50.934Z,90.70
2023-02-05T09:54:17.645Z,90.80
2023-02-05T09:56:44.073Z,90.80
2023-02-05T09:59:10.473Z,90.80
2023-02-05T10:01:36.889Z,90.80
2023-02-05T10:04:03.436Z,90.70
2023-02-05T10:06:29.827Z,90.60
2023-02-05T10:08:56.264Z,90.60
2023-02-05T10:11:22.652Z,90.50
2023-02-05T10:13:49.034Z,90.40
2023-02-05T10:16:15.631Z,90.30
2023-02-05T10:18:42.124Z,89.40
2023-02-05T10:21:08.530Z,89.60
2023-02-05T10:23:34.962Z,89.70
2023-02-05T10:26:01.423Z,89.90
2023-02-05T10:28:27.810Z,90.00
2023-02-05T10:30:54.266Z,90.00
2023-02-05T10:33:20.760Z,90.10
2023-02-05T10:35:47.708Z,90.00
2023-02-05T10:38:14.184Z,90.00
2023-02-05T10:40:40.642Z,90.00
2023-02-05T10:43:07.064Z,89.90
2023-02-05T10:45:33.891Z,89.90
2023-02-05T10:48:00.436Z,89.90
2023-02-05T10:50:26.866Z,89.60
2023-02-05T10:52:53.342Z,89.60
2023-02-05T10:55:19.736Z,89.40
2023-02-05T10:57:46.116Z,89.20
2023-02-05T11:00:12.512Z,89.10
2023-02-05T11:02:39.027Z,88.90
2023-02-05T11:05:05.431Z,88.50
2023-02-05T11:07:31.829Z,88.40
2023-02-05T11:09:58.219Z,88.20
2023-02-05T11:12:24.679Z,87.90
2023-02-05T11:14:51.393Z,87.80
2023-02-05T11:17:17.845Z,87.80
2023-02-05T11:19:44.320Z,87.90
2023-02-05T11:22:10.736Z,87.50
2023-02-05T11:24:37.130Z,87.50
2023-02-05T11:27:03.595Z,87.20
2023-02-05T11:29:30.015Z,86.90
2023-02-05T11:31:56.613Z,86.70
2023-02-05T11:34:23.108Z,86.60
2023-02-05T11:36:49.574Z,86.30
2023-02-05T11:39:16.039Z,86.30
2023-02-05T11:41:42.480Z,86.50
2023-02-05T11:44:08.874Z,86.40
2023-02-05T11:46:35.408Z,86.10
2023-02-05T11:49:01.849Z,85.80
2023-02-05T11:51:28.258Z,85.60
2023-02-05T11:53:54.675Z,85.90
2023-02-05T11:56:22.774Z,86.10
2023-02-05T11:58:50.099Z,86.20
2023-02-05T12:01:16.630Z,86.20
2023-02-05T12:03:43.034Z,86.00
2023-02-05T12:06:09.407Z,86.00
2023-02-05T12:08:35.852Z,85.90
2023-02-05T12:11:02.305Z,85.50
2023-02-05T12:13:28.748Z,85.30
2023-02-05T12:15:55.191Z,84.80
2023-02-05T12:18:21.629Z,84.30
2023-02-05T12:20:48.070Z,84.10
2023-02-05T12:23:14.494Z,84.00
2023-02-05T12:25:42.598Z,83.50
2023-02-05T12:28:09.242Z,83.20
2023-02-05T12:30:35.734Z,82.10
2023-02-05T12:33:02.185Z,81.90
2023-02-05T12:35:28.616Z,82.10
2023-02-05T12:37:55.080Z,82.30
2023-02-05T12:40:21.476Z,81.80
2023-02-05T12:42:47.896Z,81.20
2023-02-05T12:45:14.293Z,81.20
2023-02-05T12:47:40.671Z,81.30
2023-02-05T12:50:07.053Z,81.30
2023-02-05T12:52:33.495Z,81.30
2023-02-05T12:54:59.888Z,80.60
2023-02-05T12:57:26.545Z,80.80
2023-02-05T12:59:52.938Z,80.90
2023-02-05T13:02:19.305Z,80.90
2023-02-05T13:04:45.676Z,80.70
2023-02-05T13:07:12.044Z,80.80
2023-02-05T13:09:38.483Z,80.70
2023-02-05T13:12:04.901Z,80.80
2023-02-05T13:14:31.342Z,80.50
2023-02-05T13:16:57.792Z,80.40
2023-02-05T13:19:24.186Z,80.50
2023-02-05T13:21:50.564Z,81.30
2023-02-05T13:24:16.981Z,80.70
2023-02-05T13:26:43.354Z,80.90
2023-02-05T13:29:09.735Z,80.90
2023-02-05T13:31:36.147Z,80.90
2023-02-05T13:34:02.558Z,80.70
2023-02-05T13:36:28.988Z,80.50
2023-02-05T13:38:55.394Z,79.90
2023-02-05T13:41:21.829Z,79.80
2023-02-05T13:43:48.212Z,79.60
2023-02-05T13:46:14.626Z,79.50
2023-02-05T13:48:41.018Z,78.90
2023-02-05T13:51:07.393Z,78.40
2023-02-05T13:53:33.835Z,78.60
2023-02-05T13:56:00.235Z,78.40
2023-02-05T13:58:26.625Z,78.40
2023-02-05T14:00:53.083Z,78.00
2023-02-05T14:03:19.541Z,78.20
2023-02-05T14:05:45.915Z,78.00
2023-02-05T14:08:12.344Z,78.10
2023-02-05T14:10:38.737Z,78.20
2023-02-05T14:13:05.113Z,78.30
2023-02-05T14:15:31.503Z,78.30
2023-02-05T14:17:57.876Z,77.90
2023-02-05T14:20:24.384Z,77.90
2023-02-05T14:22:50.794Z,77.60
2023-02-05T14:25:17.212Z,77.60
2023-02-05T14:27:43.595Z,77.70
2023-02-05T14:30:09.984Z,77.70
2023-02-05T14:32:36.367Z,77.50
2023-02-05T14:35:02.796Z,77.50
2023-02-05T14:37:29.177Z,77.30
2023-02-05T14:39:55.617Z,77.50
2023-02-05T14:42:22.023Z,77.40
2023-02-05T14:44:48.400Z,77.40
2023-02-05T14:47:14.774Z,77.00
2023-02-05T14:49:41.164Z,77.20
2023-02-05T14:52:07.560Z,77.40
2023-02-05T14:54:33.993Z,77.60
2023-02-05T14:57:00.384Z,77.70
2023-02-05T14:59:26.809Z,77.90
2023-02-05T15:01:54.545Z,77.80
2023-02-05T15:04:21.044Z,77.30
2023-02-05T15:06:47.560Z,77.20
2023-02-05T15:09:13.924Z,77.20
2023-02-05T15:11:40.294Z,77.40
2023-02-05T15:14:06.670Z,77.40
2023-02-05T15:16:33.102Z,77.30
2023-02-05T15:18:59.479Z,77.10
2023-02-05T15:21:25.849Z,77.20
2023-02-05T15:23:52.293Z,77.40
2023-02-05T15:26:18.733Z,77.20
2023-02-05T15:28:45.162Z,76.90
2023-02-05T15:31:11.612Z,76.70
2023-02-05T15:33:38.092Z,76.70
2023-02-05T15:36:04.552Z,76.60
2023-02-05T15:38:30.979Z,76.70
2023-02-05T15:40:57.428Z,76.80
2023-02-05T15:43:23.816Z,76.60
2023-02-05T15:45:50.248Z,76.60
2023-02-05T15:48:16.850Z,76.20
2023-02-05T15:50:43.281Z,75.40
2023-02-05T15:53:09.670Z,75.60
2023-02-05T15:55:36.355Z,75.10
2023-02-05T15:58:03.021Z,75.10
2023-02-05T16:00:29.425Z,75.20
2023-02-05T16:02:55.830Z,75.30
2023-02-05T16:05:22.286Z,75.50
2023-02-05T16:07:48.670Z,75.70
2023-02-05T16:10:15.095Z,75.80
2023-02-05T16:12:41.544Z,75.80
2023-02-05T16:15:07.948Z,76.00
2023-02-05T16:17:34.342Z,76.20
2023-02-05T16:20:00.718Z,76.10
2023-02-05T16:22:27.093Z,76.20
2023-02-05T16:24:53.480Z,76.20
2023-02-05T16:27:19.855Z,76.30
2023-02-05T16:29:48.379Z,76.50
2023-02-05T16:32:15.049Z,76.70
2023-02-05T16:34:41.502Z,76.60
2023-02-05T16:37:10.098Z,76.60
2023-02-05T16:39:36.676Z,76.60
2023-02-05T16:42:03.128Z,76.50
2023-02-05T16:44:29.571Z,76.60
2023-02-05T16:46:55.970Z,76.60
2023-02-05T16:49:22.407Z,76.60
2023-02-05T16:51:48.830Z,76.50
2023-02-05T16:54:15.273Z,76.70
2023-02-05T16:56:41.702Z,76.80
2023-02-05T16:59:08.129Z,76.90
2023-02-05T17:01:34.569Z,76.90
2023-02-05T17:04:01.014Z,76.80
2023-02-05T17:06:27.392Z,76.80
2023-02-05T17:08:53.761Z,76.90
2023-02-05T17:11:20.207Z,77.10
2023-02-05T17:13:46.752Z,77.20
2023-02-05T17:16:13.354Z,77.20
2023-02-05T17:18:39.838Z,77.20
2023-02-05T17:21:06.276Z,77.30
2023-02-05T17:23:32.657Z,77.50
2023-02-05T17:25:59.026Z,77.60
2023-02-05T17:28:25.489Z,77.60
2023-02-05T17:30:51.903Z,77.70
2023-02-05T17:33:18.350Z,77.80
2023-02-05T17:35:44.720Z,77.80
2023-02-05T17:38:11.141Z,77.90
2023-02-05T17:40:37.580Z,78.10
2023-02-05T17:43:04.013Z,78.20
2023-02-05T17:45:30.557Z,78.30
2023-02-05T17:47:57.056Z,78.30
2023-02-05T17:50:23.547Z,78.40
2023-02-05T17:52:49.990Z,78.60
2023-02-05T17:55:16.519Z,78.70
2023-02-05T17:57:42.954Z,78.80
2023-02-05T18:00:09.396Z,78.90
2023-02-05T18:02:35.924Z,79.10
2023-02-05T18:05:02.417Z,79.10
2023-02-05T18:07:28.844Z,79.30
2023-02-05T18:09:55.334Z,79.40
2023-02-05T18:12:21.812Z,79.50
2023-02-05T18:14:48.270Z,79.50
2023-02-05T18:17:14.746Z,79.60
2023-02-05T18:19:41.138Z,79.70
2023-02-05T18:22:07.900Z,79.90
2023-02-05T18:24:34.530Z,80.00
2023-02-05T18:27:00.890Z,80.10
2023-02-05T18:29:27.454Z,80.20
2023-02-05T18:31:53.937Z,80.40
2023-02-05T18:34:20.382Z,80.60
2023-02-05T18:42:15.054Z,80.70
2023-02-05T18:44:41.526Z,80.70
2023-02-05T18:47:08.006Z,80.80
2023-02-05T18:49:34.654Z,80.90
2023-02-05T18:52:01.029Z,81.00
2023-02-05T18:54:27.423Z,81.10
2023-02-05T18:56:53.841Z,81.20
2023-02-05T18:59:20.279Z,81.30
2023-02-05T19:01:46.888Z,81.40
2023-02-05T19:04:13.316Z,81.40
2023-02-05T19:06:39.680Z,81.50
2023-02-05T19:09:06.048Z,81.60
2023-02-05T19:11:32.474Z,81.70
2023-02-05T19:13:58.914Z,81.80
2023-02-05T19:16:25.300Z,81.90
2023-02-05T19:18:51.751Z,81.90
2023-02-05T19:21:18.206Z,82.00
2023-02-05T19:23:44.659Z,82.10
2023-02-05T19:26:11.080Z,82.70
2023-02-05T19:28:37.528Z,82.20
2023-02-05T19:31:04.109Z,82.30
2023-02-05T19:33:30.657Z,82.20
2023-02-05T19:35:57.136Z,82.30
2023-02-05T19:38:23.538Z,82.40
2023-02-05T19:40:49.988Z,82.30
2023-02-05T19:43:16.768Z,82.40
2023-02-05T19:45:43.217Z,82.50
2023-02-05T19:48:09.699Z,82.60
2023-02-05T19:50:36.500Z,82.60
2023-02-05T19:53:03.017Z,82.60
2023-02-05T19:55:29.506Z,83.20
2023-02-05T19:57:55.950Z,82.60
2023-02-05T20:00:22.503Z,82.60
2023-02-05T20:02:48.913Z,82.60
2023-02-05T20:05:15.306Z,82.60
2023-02-05T20:07:41.781Z,82.50
2023-02-05T20:10:08.218Z,82.50
2023-02-05T20:12:34.666Z,82.70
2023-02-05T20:15:01.074Z,82.90
2023-02-05T20:17:27.520Z,82.90
2023-02-05T20:19:59.689Z,83.10
2023-02-05T20:22:32.247Z,83.30
2023-02-05T20:24:58.646Z,83.60
2023-02-05T20:27:25.021Z,83.70
2023-02-05T20:29:51.441Z,83.90
2023-02-05T20:32:17.842Z,84.00
2023-02-05T20:34:45.278Z,84.10
2023-02-05T20:37:11.658Z,84.10
2023-02-05T20:39:38.189Z,84.00
2023-02-05T20:42:04.783Z,84.00
2023-02-05T20:44:31.178Z,83.80
2023-02-05T20:46:57.554Z,83.90
2023-02-05T20:49:24.018Z,84.00
2023-02-05T20:51:50.476Z,84.00
2023-02-05T20:54:16.902Z,83.90
2023-02-05T20:56:43.350Z,83.90
2023-02-05T20:59:09.761Z,84.00
2023-02-05T21:01:36.159Z,84.10
2023-02-05T21:04:02.576Z,84.10
2023-02-05T21:06:28.967Z,84.10
2023-02-05T21:08:55.411Z,84.10
2023-02-05T21:11:21.802Z,84.20
2023-02-05T21:13:48.178Z,84.30
2023-02-05T21:16:14.656Z,84.40
2023-02-05T21:18:41.094Z,84.50
2023-02-05T21:21:07.492Z,84.50
2023-02-05T21:23:33.946Z,84.50
2023-02-05T21:26:00.382Z,84.40
2023-02-05T21:28:26.763Z,84.50
2023-02-05T21:30:53.220Z,84.60
2023-02-05T21:33:19.642Z,84.80
2023-02-05T21:35:46.027Z,85.00
2023-02-05T21:38:12.461Z,85.10
2023-02-05T21:40:38.901Z,85.20
2023-02-05T21:43:05.423Z,85.30
2023-02-05T21:45:31.865Z,85.40
2023-02-05T21:47:58.251Z,85.50
2023-02-05T21:50:24.647Z,85.50
2023-02-05T21:52:51.082Z,85.40
2023-02-05T21:55:17.643Z,85.30
2023-02-05T21:57:44.034Z,85.30
2023-02-05T22:00:10.434Z,85.50
2023-02-05T22:02:36.868Z,85.50
2023-02-05T22:05:03.397Z,85.60
2023-02-05T22:07:29.847Z,85.70
2023-02-05T22:09:56.287Z,85.80
2023-02-05T22:12:22.752Z,85.90
2023-02-05T22:14:49.166Z,86.10
2023-02-05T22:17:15.538Z,86.20
2023-02-05T22:19:41.966Z,86.30
2023-02-05T22:22:08.407Z,86.30
2023-02-05T22:24:34.789Z,86.30
2023-02-05T22:27:01.265Z,86.30
2023-02-05T22:29:27.715Z,86.30
2023-02-05T22:31:54.226Z,86.40
2023-02-05T22:34:20.663Z,86.40
2023-02-05T22:36:47.086Z,86.60
2023-02-05T22:39:13.520Z,86.50
2023-02-05T22:41:39.963Z,86.50
2023-02-05T22:44:06.354Z,86.40
2023-02-05T22:46:32.758Z,86.60
2023-02-05T22:48:59.142Z,86.70
2023-02-05T22:51:25.590Z,86.80
2023-02-05T22:53:52.024Z,87.00
2023-02-05T22:56:18.467Z,87.10
2023-02-05T22:58:44.909Z,87.20
2023-02-05T23:01:11.378Z,87.20
2023-02-05T23:03:37.842Z,87.20
2023-02-05T23:06:04.611Z,87.30
2023-02-05T23:08:31.025Z,87.20
2023-02-05T23:10:57.458Z,87.30
2023-02-05T23:13:23.878Z,87.30
2023-02-05T23:15:50.253Z,87.30
2023-02-05T23:18:16.876Z,87.40
2023-02-05T23:20:43.332Z,87.40
2023-02-05T23:23:09.735Z,87.30
2023-02-05T23:25:36.462Z,87.30
2023-02-05T23:28:03.123Z,87.50
2023-02-05T23:30:29.942Z,87.50
2023-02-05T23:32:56.432Z,87.60
2023-02-05T23:35:22.834Z,87.80
2023-02-05T23:37:49.255Z,87.90
2023-02-05T23:40:15.712Z,87.90
2023-02-05T23:42:42.168Z,87.90
2023-02-05T23:45:08.616Z,88.00
2023-02-05T23:47:35.074Z,88.10
2023-02-05T23:50:01.448Z,88.00
2023-02-05T23:52:27.854Z,88.00
2023-02-05T23:54:54.279Z,88.00
2023-02-05T23:57:20.677Z,88.00
2023-02-05T23:59:47.053Z,88.20
